Time;durP1;ratioP1;P1;durP2;ratioP2;P2;SDS_P1;SDS_P2;PMS_P1;PMS_P2;Temp;Humidity;BMP_temperature;BMP_pressure;BME280_temperature;BME280_humidity;BME280_pressure;Samples;Min_cycle;Max_cycle;Signal;HPM_P1;HPM_P2
2023/10/21 00:00:41;;;;;;;13.00;3.40;;;;;;;;;;5006512;28;20677;-67
2023/10/21 00:03:07;;;;;;;12.25;3.60;;;;;;;;;;5006402;28;20037;-67
2023/10/21 00:05:33;;;;;;;10.25;2.85;;;;;;;;;;5000665;28;20030;-67
2023/10/21 00:07:59;;;;;;;10.75;2.80;;;;;;;;;;5002309;28;20155;-67
2023/10/21 00:10:25;;;;;;;10.77;2.33;;;;;;;;;;5001831;28;20507;-68
2023/10/21 00:12:51;;;;;;;8.35;2.15;;;;;;;;;;5003761;28;20028;-67
2023/10/21 00:15:17;;;;;;;10.35;2.85;;;;;;;;;;4999880;28;20745;-68
2023/10/21 00:17:43;;;;;;;8.73;1.90;;;;;;;;;;5002987;28;20130;-68
2023/10/21 00:20:10;;;;;;;8.68;2.60;;;;;;;;;;5003529;28;20530;-67
2023/10/21 00:22:36;;;;;;;9.50;2.30;;;;;;;;;;5001878;28;20025;-66
2023/10/21 00:25:04;;;;;;;10.35;2.75;;;;;;;;;;5021609;28;20135;-67
2023/10/21 00:27:30;;;;;;;7.95;2.00;;;;;;;;;;5018623;28;20349;-69
2023/10/21 00:29:56;;;;;;;8.43;2.08;;;;;;;;;;5025590;28;20025;-68
2023/10/21 00:32:22;;;;;;;9.52;2.30;;;;;;;;;;5026701;28;20059;-68
2023/10/21 00:34:49;;;;;;;8.73;1.98;;;;;;;;;;5004673;28;20115;-68
2023/10/21 00:37:15;;;;;;;8.90;1.98;;;;;;;;;;5022477;28;20558;-68
2023/10/21 00:39:45;;;;;;;9.10;2.08;;;;;;;;;;5025596;28;20028;-68
2023/10/21 00:42:11;;;;;;;7.78;1.70;;;;;;;;;;5004168;28;20040;-69
2023/10/21 00:44:37;;;;;;;8.32;1.98;;;;;;;;;;5014148;28;20041;-68
2023/10/21 00:47:03;;;;;;;8.93;1.80;;;;;;;;;;5006030;28;20046;-68
2023/10/21 00:49:30;;;;;;;9.25;1.80;;;;;;;;;;5007145;28;20129;-68
2023/10/21 00:51:57;;;;;;;8.45;1.80;;;;;;;;;;5011362;28;20247;-68
2023/10/21 00:54:25;;;;;;;7.90;1.80;;;;;;;;;;5001708;28;20021;-68
2023/10/21 00:56:52;;;;;;;6.38;1.40;;;;;;;;;;5011163;28;20036;-70
2023/10/21 00:59:18;;;;;;;7.57;1.63;;;;;;;;;;5012769;28;20040;-68
2023/10/21 01:01:45;;;;;;;9.70;2.30;;;;;;;;;;5020754;28;21189;-69
2023/10/21 01:04:12;;;;;;;9.25;1.90;;;;;;;;;;5022959;28;20025;-69
2023/10/21 01:06:38;;;;;;;8.30;1.85;;;;;;;;;;5027931;28;20083;-69
2023/10/21 01:09:04;;;;;;;7.30;1.40;;;;;;;;;;5023581;28;20156;-69
2023/10/21 01:11:30;;;;;;;7.82;1.63;;;;;;;;;;5004984;28;20053;-69
2023/10/21 01:13:57;;;;;;;9.70;2.13;;;;;;;;;;5024934;28;20504;-69
2023/10/21 01:16:23;;;;;;;10.57;2.20;;;;;;;;;;5000546;28;20032;-69
2023/10/21 01:18:49;;;;;;;10.38;2.20;;;;;;;;;;5021469;28;20098;-67
2023/10/21 01:21:15;;;;;;;12.43;2.67;;;;;;;;;;5018769;28;20464;-67
2023/10/21 01:23:42;;;;;;;;;;;;;;;;;;5022197;28;20056;-69
2023/10/21 01:26:08;;;;;;;9.93;1.83;;;;;;;;;;5022202;28;19921;-67
2023/10/21 01:28:34;;;;;;;8.73;1.73;;;;;;;;;;5016310;28;20041;-68
2023/10/21 01:31:00;;;;;;;;;;;;;;;;;;5018685;28;20013;-69
2023/10/21 01:33:27;;;;;;;9.35;2.22;;;;;;;;;;5016942;28;19963;-68
2023/10/21 01:35:53;;;;;;;10.02;2.90;;;;;;;;;;5023396;28;20029;-68
2023/10/21 01:38:19;;;;;;;;;;;;;;;;;;5019563;28;20120;-69
2023/10/21 01:40:45;;;;;;;9.33;2.53;;;;;;;;;;5028018;28;19915;-68
2023/10/21 01:43:12;;;;;;;8.45;2.63;;;;;;;;;;5005450;28;20570;-68
2023/10/21 01:45:38;;;;;;;9.70;1.77;;;;;;;;;;5003550;28;20127;-68
2023/10/21 01:48:05;;;;;;;11.32;2.40;;;;;;;;;;5020162;28;20032;-68
2023/10/21 01:50:31;;;;;;;10.93;2.20;;;;;;;;;;5001296;28;20348;-69
2023/10/21 01:52:58;;;;;;;10.55;2.10;;;;;;;;;;5022786;28;20029;-70
2023/10/21 01:55:24;;;;;;;9.23;2.20;;;;;;;;;;5018322;28;20308;-69
2023/10/21 01:57:50;;;;;;;10.18;2.33;;;;;;;;;;5023506;28;20017;-69
2023/10/21 02:00:20;;;;;;;;;;;;;;;;;;5017797;28;20336;-69
2023/10/21 02:02:53;;;;;;;10.70;2.40;;;;;;;;;;5023414;28;20299;-69
2023/10/21 02:05:20;;;;;;;11.00;2.38;;;;;;;;;;5022754;28;20114;-69
2023/10/21 02:07:46;;;;;;;8.75;1.90;;;;;;;;;;5019721;28;20779;-69
2023/10/21 02:10:13;;;;;;;9.43;1.98;;;;;;;;;;5022187;28;20282;-69
2023/10/21 02:12:39;;;;;;;10.90;2.00;;;;;;;;;;5017712;28;20116;-69
2023/10/21 02:15:11;;;;;;;9.20;1.92;;;;;;;;;;5008542;28;20035;-69
2023/10/21 02:17:38;;;;;;;8.43;2.30;;;;;;;;;;5016064;28;20047;-69
2023/10/21 02:20:04;;;;;;;8.07;2.10;;;;;;;;;;5024963;28;20124;-69
2023/10/21 02:22:30;;;;;;;9.05;2.20;;;;;;;;;;5002483;28;20474;-69
2023/10/21 02:24:56;;;;;;;;;;;;;;;;;;5025429;28;20044;-69
2023/10/21 02:27:23;;;;;;;7.68;1.83;;;;;;;;;;5020847;28;20366;-69
2023/10/21 02:29:48;;;;;;;;;;;;;;;;;;5024577;28;20088;-70
2023/10/21 02:32:15;;;;;;;9.70;1.90;;;;;;;;;;5021116;28;20492;-68
2023/10/21 02:34:41;;;;;;;10.55;2.22;;;;;;;;;;5020926;28;20761;-70
2023/10/21 02:37:08;;;;;;;11.52;2.30;;;;;;;;;;5007764;28;20086;-69
2023/10/21 02:39:34;;;;;;;8.23;1.95;;;;;;;;;;5021985;28;20115;-69
2023/10/21 02:42:01;;;;;;;7.72;1.77;;;;;;;;;;5023312;28;20311;-69
2023/10/21 02:44:27;;;;;;;;;;;;;;;;;;5005144;28;20029;-69
2023/10/21 02:46:53;;;;;;;9.73;2.30;;;;;;;;;;5010847;28;20086;-69
2023/10/21 02:49:19;;;;;;;8.30;2.50;;;;;;;;;;5001724;28;20063;-69
2023/10/21 02:51:45;;;;;;;10.70;2.10;;;;;;;;;;5024476;28;20542;-70
2023/10/21 02:54:11;;;;;;;;;;;;;;;;;;5021103;28;20313;-69
2023/10/21 02:56:41;;;;;;;7.55;1.70;;;;;;;;;;5018360;28;19944;-70
2023/10/21 02:59:07;;;;;;;8.77;1.90;;;;;;;;;;5024029;28;20036;-69
2023/10/21 03:01:33;;;;;;;8.50;1.90;;;;;;;;;;5000381;28;20504;-69
2023/10/21 03:03:59;;;;;;;;;;;;;;;;;;5020444;28;20167;-69
2023/10/21 03:06:25;;;;;;;8.15;1.85;;;;;;;;;;5019481;28;19912;-69
2023/10/21 03:08:51;;;;;;;;;;;;;;;;;;5022563;28;20872;-69
2023/10/21 03:11:18;;;;;;;8.63;1.75;;;;;;;;;;5019219;28;20188;-69
2023/10/21 03:13:44;;;;;;;9.60;2.00;;;;;;;;;;5003398;28;20273;-69
2023/10/21 03:16:10;;;;;;;;;;;;;;;;;;5028023;28;20029;-69
2023/10/21 03:18:37;;;;;;;6.80;1.40;;;;;;;;;;5022008;28;20193;-69
2023/10/21 03:21:04;;;;;;;7.90;1.70;;;;;;;;;;5027862;28;20507;-69
2023/10/21 03:23:31;;;;;;;10.27;1.90;;;;;;;;;;5020731;28;20052;-69
2023/10/21 03:26:01;;;;;;;6.65;1.58;;;;;;;;;;5007629;28;20037;-69
2023/10/21 03:28:28;;;;;;;7.60;1.60;;;;;;;;;;5004951;28;20100;-69
2023/10/21 03:30:57;;;;;;;7.78;2.08;;;;;;;;;;5025181;28;20545;-69
2023/10/21 03:33:24;;;;;;;10.07;2.00;;;;;;;;;;5023630;28;20511;-69
2023/10/21 03:36:00;;;;;;;9.90;1.65;;;;;;;;;;5024372;28;20032;-69
2023/10/21 03:38:26;;;;;;;8.20;2.00;;;;;;;;;;5021676;28;20546;-69
2023/10/21 03:40:58;;;;;;;8.68;2.25;;;;;;;;;;5006343;28;20456;-68
2023/10/21 03:43:25;;;;;;;8.43;1.63;;;;;;;;;;5002482;28;20461;-69
2023/10/21 03:45:52;;;;;;;9.55;2.13;;;;;;;;;;5025186;28;20922;-68
2023/10/21 03:48:18;;;;;;;12.23;2.15;;;;;;;;;;5023414;28;20171;-69
2023/10/21 03:50:44;;;;;;;;;;;;;;;;;;5020523;28;20286;-69
2023/10/21 03:53:11;;;;;;;9.20;1.90;;;;;;;;;;5024030;28;19999;-69
2023/10/21 03:55:37;;;;;;;7.88;1.85;;;;;;;;;;5022588;28;20135;-69
2023/10/21 03:58:04;;;;;;;10.70;2.10;;;;;;;;;;5024267;28;20579;-69
2023/10/21 04:00:30;;;;;;;8.95;1.95;;;;;;;;;;5021991;28;20040;-71
2023/10/21 04:02:56;;;;;;;9.73;2.30;;;;;;;;;;5027096;28;20032;-69
2023/10/21 04:05:22;;;;;;;8.20;1.92;;;;;;;;;;5019782;28;20023;-68
2023/10/21 04:07:48;;;;;;;;;;;;;;;;;;5025038;28;20089;-69
2023/10/21 04:10:14;;;;;;;8.80;1.90;;;;;;;;;;5019290;28;20443;-68
2023/10/21 04:12:40;;;;;;;8.80;1.98;;;;;;;;;;5024833;28;20029;-68
2023/10/21 04:15:07;;;;;;;;;;;;;;;;;;5024071;28;20040;-68
2023/10/21 04:17:33;;;;;;;;;;;;;;;;;;5019774;28;19923;-68
2023/10/21 04:19:59;;;;;;;11.18;5.10;;;;;;;;;;5022272;28;20023;-69
2023/10/21 04:22:26;;;;;;;9.40;3.22;;;;;;;;;;5003898;28;20573;-69
2023/10/21 04:24:51;;;;;;;;;;;;;;;;;;5022410;28;20053;-69
2023/10/21 04:27:18;;;;;;;7.93;2.30;;;;;;;;;;5025408;28;19977;-69
2023/10/21 04:29:44;;;;;;;8.05;2.30;;;;;;;;;;5026998;28;20033;-69
2023/10/21 04:32:10;;;;;;;;;;;;;;;;;;5009319;28;20026;-70
2023/10/21 04:34:36;;;;;;;8.38;2.28;;;;;;;;;;5021532;28;20498;-69
2023/10/21 04:37:02;;;;;;;;;;;;;;;;;;5023992;28;20029;-70
2023/10/21 04:39:29;;;;;;;8.50;1.83;;;;;;;;;;5025987;28;19963;-68
2023/10/21 04:41:56;;;;;;;9.70;2.47;;;;;;;;;;5027000;28;20756;-67
2023/10/21 04:44:22;;;;;;;7.97;2.00;;;;;;;;;;5005184;28;20037;-67
2023/10/21 04:46:48;;;;;;;7.50;1.88;;;;;;;;;;5008422;28;20322;-69
2023/10/21 04:49:14;;;;;;;8.88;2.25;;;;;;;;;;5023445;28;20718;-68
2023/10/21 04:51:40;;;;;;;;;;;;;;;;;;5009060;28;20040;-67
2023/10/21 04:54:09;;;;;;;8.40;1.98;;;;;;;;;;5023810;28;20282;-68
2023/10/21 04:56:35;;;;;;;6.65;1.83;;;;;;;;;;5023121;28;20034;-68
2023/10/21 04:59:01;;;;;;;;;;;;;;;;;;5023672;28;20091;-68
2023/10/21 05:01:27;;;;;;;8.77;2.13;;;;;;;;;;5019000;28;20460;-68
2023/10/21 05:03:53;;;;;;;;;;;;;;;;;;5023352;28;20052;-68
2023/10/21 05:06:19;;;;;;;7.40;1.85;;;;;;;;;;5005964;28;21375;-68
2023/10/21 05:08:46;;;;;;;8.25;1.80;;;;;;;;;;5022871;28;20507;-68
2023/10/21 05:11:12;;;;;;;;;;;;;;;;;;5006585;28;20634;-68
2023/10/21 05:13:38;;;;;;;7.43;2.22;;;;;;;;;;5006250;28;20062;-68
2023/10/21 05:16:04;;;;;;;;;;;;;;;;;;5025511;28;20055;-68
2023/10/21 05:18:30;;;;;;;8.38;2.20;;;;;;;;;;5017606;28;20382;-68
2023/10/21 05:20:56;;;;;;;;;;;;;;;;;;5021133;28;20094;-68
2023/10/21 05:23:23;;;;;;;10.10;2.20;;;;;;;;;;4999220;28;20398;-68
2023/10/21 05:25:49;;;;;;;8.38;2.15;;;;;;;;;;5029284;28;20043;-69
2023/10/21 05:28:15;;;;;;;8.73;2.10;;;;;;;;;;5018603;28;20459;-69
2023/10/21 05:30:43;;;;;;;;;;;;;;;;;;5027853;28;20441;-67
2023/10/21 05:33:09;;;;;;;;;;;;;;;;;;5026340;28;19912;-69
2023/10/21 05:35:35;;;;;;;10.75;2.70;;;;;;;;;;5002420;28;19966;-68
2023/10/21 05:38:01;;;;;;;9.30;2.40;;;;;;;;;;5022084;28;20036;-69
2023/10/21 05:40:27;;;;;;;8.48;2.22;;;;;;;;;;5016722;28;20104;-69
2023/10/21 05:42:53;;;;;;;;;;;;;;;;;;5022187;28;20037;-69
2023/10/21 05:45:19;;;;;;;9.68;2.40;;;;;;;;;;5005551;28;19916;-69
2023/10/21 05:47:45;;;;;;;;;;;;;;;;;;5022728;28;20041;-69
2023/10/21 05:50:11;;;;;;;10.88;2.30;;;;;;;;;;5020279;28;19927;-68
2023/10/21 05:52:37;;;;;;;7.10;1.80;;;;;;;;;;5001998;28;20060;-69
2023/10/21 05:55:05;;;;;;;;;;;;;;;;;;5020793;28;20566;-69
2023/10/21 05:57:31;;;;;;;8.45;1.88;;;;;;;;;;5017969;28;20265;-70
2023/10/21 05:59:58;;;;;;;9.70;2.08;;;;;;;;;;5023912;28;20452;-67
2023/10/21 06:02:24;;;;;;;;;;;;;;;;;;5017406;28;20055;-67
2023/10/21 06:04:50;;;;;;;8.23;1.92;;;;;;;;;;5023909;28;20031;-69
2023/10/21 06:07:16;;;;;;;10.82;2.00;;;;;;;;;;5021615;28;20353;-68
2023/10/21 06:09:42;;;;;;;10.55;2.25;;;;;;;;;;5023866;28;20047;-68
2023/10/21 06:12:08;;;;;;;;;;;;;;;;;;5024051;28;20055;-69
2023/10/21 06:14:34;;;;;;;6.70;1.70;;;;;;;;;;5004001;28;20365;-69
2023/10/21 06:17:00;;;;;;;;;;;;;;;;;;5023889;28;20024;-69
2023/10/21 06:19:27;;;;;;;11.43;2.10;;;;;;;;;;5022030;28;19913;-68
2023/10/21 06:21:54;;;;;;;7.90;1.88;;;;;;;;;;5019464;28;20028;-68
2023/10/21 06:24:21;;;;;;;8.65;1.83;;;;;;;;;;5000320;28;21686;-68
2023/10/21 06:26:48;;;;;;;16.90;2.88;;;;;;;;;;5007030;28;20092;-68
2023/10/21 06:29:14;;;;;;;;;;;;;;;;;;5004194;28;20053;-68
2023/10/21 06:31:40;;;;;;;10.80;2.45;;;;;;;;;;5001789;28;20043;-68
2023/10/21 06:34:06;;;;;;;12.15;2.40;;;;;;;;;;4999158;28;20037;-68
2023/10/21 06:36:33;;;;;;;;;;;;;;;;;;5016945;28;20205;-68
2023/10/21 06:39:00;;;;;;;9.32;2.17;;;;;;;;;;5023838;28;19920;-69
2023/10/21 06:41:26;;;;;;;7.88;2.20;;;;;;;;;;5020368;28;20040;-68
2023/10/21 06:43:52;;;;;;;8.82;2.40;;;;;;;;;;5021471;28;20120;-69
2023/10/21 06:46:18;;;;;;;;;;;;;;;;;;5023155;28;20028;-68
2023/10/21 06:48:45;;;;;;;7.77;2.30;;;;;;;;;;5022202;28;19916;-68
2023/10/21 06:51:13;;;;;;;9.65;2.20;;;;;;;;;;5021384;28;20095;-69
2023/10/21 06:53:39;;;;;;;9.77;2.40;;;;;;;;;;5006312;28;20064;-68
2023/10/21 06:56:14;;;;;;;9.50;2.60;;;;;;;;;;5020814;28;20552;-67
2023/10/21 06:58:40;;;;;;;9.57;2.55;;;;;;;;;;5022744;28;20106;-69
2023/10/21 07:01:07;;;;;;;10.15;2.90;;;;;;;;;;5019024;28;20033;-70
2023/10/21 07:03:33;;;;;;;9.07;2.72;;;;;;;;;;5019247;28;23130;-69
2023/10/21 07:05:59;;;;;;;11.13;3.00;;;;;;;;;;5008151;28;20709;-68
2023/10/21 07:08:25;;;;;;;9.80;2.97;;;;;;;;;;5015795;28;20395;-69
2023/10/21 07:10:53;;;;;;;9.88;2.88;;;;;;;;;;5023498;28;20025;-68
2023/10/21 07:13:20;;;;;;;10.95;3.35;;;;;;;;;;5019622;28;20032;-68
2023/10/21 07:15:47;;;;;;;10.52;3.38;;;;;;;;;;5004850;28;20315;-68
2023/10/21 07:18:14;;;;;;;9.68;3.13;;;;;;;;;;4997386;28;20029;-69
2023/10/21 07:20:43;;;;;;;13.27;4.15;;;;;;;;;;5004008;28;20353;-69
2023/10/21 07:23:12;;;;;;;14.27;3.92;;;;;;;;;;5000249;28;20044;-69
2023/10/21 07:25:39;;;;;;;13.13;3.60;;;;;;;;;;5025176;28;20495;-69
2023/10/21 07:28:05;;;;;;;12.35;3.28;;;;;;;;;;5001881;28;20059;-69
2023/10/21 07:30:31;;;;;;;12.02;3.60;;;;;;;;;;5021378;28;20069;-69
2023/10/21 07:32:58;;;;;;;12.20;4.40;;;;;;;;;;5019083;28;20387;-69
2023/10/21 07:35:26;;;;;;;12.27;4.88;;;;;;;;;;4995646;28;20534;-69
2023/10/21 07:37:54;;;;;;;13.85;5.68;;;;;;;;;;5016304;28;20025;-69
2023/10/21 07:40:21;;;;;;;17.58;9.27;;;;;;;;;;5014200;28;20194;-69
2023/10/21 07:42:47;;;;;;;24.35;10.23;;;;;;;;;;5015987;28;20439;-69
2023/10/21 07:45:14;;;;;;;18.45;10.48;;;;;;;;;;5017560;28;20077;-68
2023/10/21 07:47:41;;;;;;;19.00;9.68;;;;;;;;;;5017583;28;20120;-68
2023/10/21 07:50:07;;;;;;;14.45;6.50;;;;;;;;;;4999115;28;20379;-69
2023/10/21 07:52:37;;;;;;;14.32;5.70;;;;;;;;;;5010411;28;20765;-69
2023/10/21 07:55:04;;;;;;;14.00;6.10;;;;;;;;;;5019600;28;20036;-69
2023/10/21 07:57:33;;;;;;;15.52;6.85;;;;;;;;;;4997229;28;20443;-69
2023/10/21 08:00:00;;;;;;;14.13;6.95;;;;;;;;;;5020480;28;20084;-70
2023/10/21 08:02:26;;;;;;;15.50;7.43;;;;;;;;;;5022069;28;20037;-70
2023/10/21 08:04:52;;;;;;;19.25;7.97;;;;;;;;;;5021981;28;20542;-70
2023/10/21 08:07:19;;;;;;;20.15;8.88;;;;;;;;;;5003124;28;20534;-70
2023/10/21 08:09:45;;;;;;;18.58;8.82;;;;;;;;;;5007874;28;20021;-70
2023/10/21 08:12:11;;;;;;;16.88;7.45;;;;;;;;;;5022991;28;20447;-69
2023/10/21 08:14:40;;;;;;;14.70;7.10;;;;;;;;;;5006154;28;20382;-69
2023/10/21 08:17:07;;;;;;;13.60;6.53;;;;;;;;;;5004799;28;20049;-69
2023/10/21 08:19:34;;;;;;;17.42;8.45;;;;;;;;;;5014166;28;20439;-69
2023/10/21 08:22:00;;;;;;;17.58;10.75;;;;;;;;;;5019636;28;20316;-69
2023/10/21 08:24:27;;;;;;;19.50;11.00;;;;;;;;;;5005020;28;20051;-70
2023/10/21 08:26:53;;;;;;;16.73;9.40;;;;;;;;;;5020666;28;20229;-70
2023/10/21 08:29:20;;;;;;;21.85;11.27;;;;;;;;;;5016190;28;20194;-69
2023/10/21 08:31:47;;;;;;;21.63;11.52;;;;;;;;;;5020480;28;20036;-70
2023/10/21 08:34:13;;;;;;;20.65;10.05;;;;;;;;;;5019678;28;20043;-70
2023/10/21 08:36:40;;;;;;;17.65;8.38;;;;;;;;;;5017547;28;20033;-69
2023/10/21 08:39:07;;;;;;;17.65;8.52;;;;;;;;;;5019181;28;20025;-69
2023/10/21 08:41:37;;;;;;;19.42;9.65;;;;;;;;;;5016945;28;20642;-69
2023/10/21 08:44:05;;;;;;;16.98;9.32;;;;;;;;;;5002701;28;20408;-69
2023/10/21 08:46:35;;;;;;;17.40;9.43;;;;;;;;;;5020850;28;20352;-69
2023/10/21 08:49:05;;;;;;;22.88;11.40;;;;;;;;;;5023514;28;20090;-70
2023/10/21 08:51:32;;;;;;;41.50;27.13;;;;;;;;;;4998474;28;20161;-69
2023/10/21 08:54:05;;;;;;;40.00;25.52;;;;;;;;;;5018568;28;20032;-69
2023/10/21 08:56:31;;;;;;;46.72;32.58;;;;;;;;;;5017364;28;20029;-69
2023/10/21 08:58:58;;;;;;;47.45;32.53;;;;;;;;;;5021539;28;20017;-70
2023/10/21 09:01:24;;;;;;;53.35;37.67;;;;;;;;;;5019029;28;20036;-70
2023/10/21 09:03:51;;;;;;;63.42;42.97;;;;;;;;;;5005087;28;20033;-71
2023/10/21 09:06:17;;;;;;;67.63;45.55;;;;;;;;;;5000422;28;20040;-69
2023/10/21 09:08:45;;;;;;;64.20;41.85;;;;;;;;;;5019380;28;20151;-70
2023/10/21 09:11:12;;;;;;;49.63;31.35;;;;;;;;;;5001212;28;20670;-69
2023/10/21 09:13:39;;;;;;;39.70;27.10;;;;;;;;;;5017787;28;20102;-68
2023/10/21 09:16:26;;;;;;;42.60;27.65;;;;;;;;;;5019385;28;20032;-70
2023/10/21 09:19:08;;;;;;;30.65;19.02;;;;;;;;;;5001743;28;20021;-70
2023/10/21 09:21:39;;;;;;;26.85;14.50;;;;;;;;;;5016768;28;20215;-69
2023/10/21 09:24:06;;;;;;;26.70;15.93;;;;;;;;;;4997474;28;20072;-70
2023/10/21 09:26:36;;;;;;;25.85;15.23;;;;;;;;;;5000402;28;20818;-70
2023/10/21 09:29:22;;;;;;;18.63;10.35;;;;;;;;;;5018085;28;20060;-70
2023/10/21 09:31:55;;;;;;;20.67;12.63;;;;;;;;;;5017667;28;20586;-69
2023/10/21 09:34:29;;;;;;;22.05;12.35;;;;;;;;;;5002268;28;20075;-69
2023/10/21 09:36:56;;;;;;;18.48;10.77;;;;;;;;;;5020008;28;20656;-70
2023/10/21 09:39:23;;;;;;;16.30;9.27;;;;;;;;;;5020246;28;20033;-69
2023/10/21 09:41:49;;;;;;;16.20;9.38;;;;;;;;;;5022247;28;20577;-69
2023/10/21 09:44:16;;;;;;;17.50;10.07;;;;;;;;;;5018004;28;20029;-68
2023/10/21 09:46:46;;;;;;;16.65;9.50;;;;;;;;;;5005137;28;20549;-69
2023/10/21 09:49:13;;;;;;;15.68;8.52;;;;;;;;;;5022303;28;20638;-69
2023/10/21 09:52:00;;;;;;;16.83;9.05;;;;;;;;;;5004250;28;20102;-69
2023/10/21 09:54:45;;;;;;;14.73;6.88;;;;;;;;;;5005398;28;20287;-69
2023/10/21 09:57:12;;;;;;;15.88;8.20;;;;;;;;;;5023310;28;20490;-69
2023/10/21 09:59:38;;;;;;;17.33;7.40;;;;;;;;;;5019013;28;20082;-69
2023/10/21 10:02:08;;;;;;;13.48;5.57;;;;;;;;;;5022266;28;20090;-69
2023/10/21 10:04:37;;;;;;;13.60;5.32;;;;;;;;;;5001366;28;20034;-71
2023/10/21 10:07:06;;;;;;;12.93;5.63;;;;;;;;;;5004459;28;20033;-71
2023/10/21 10:09:35;;;;;;;13.10;6.20;;;;;;;;;;5016439;28;20056;-71
2023/10/21 10:12:04;;;;;;;12.07;6.53;;;;;;;;;;5022877;28;20458;-71
2023/10/21 10:14:31;;;;;;;15.38;5.97;;;;;;;;;;5019838;28;20229;-71
2023/10/21 10:16:57;;;;;;;15.23;6.80;;;;;;;;;;5021790;28;20032;-71
2023/10/21 10:19:38;;;;;;;13.23;6.30;;;;;;;;;;5016531;28;20029;-71
2023/10/21 10:22:24;;;;;;;14.07;7.40;;;;;;;;;;5003163;28;20773;-71
2023/10/21 10:25:11;;;;;;;14.45;6.70;;;;;;;;;;5007271;28;20490;-70
2023/10/21 10:27:40;;;;;;;15.20;8.13;;;;;;;;;;5017511;28;20080;-72
2023/10/21 10:30:36;;;;;;;22.58;13.07;;;;;;;;;;5019701;28;20352;-71
2023/10/21 10:33:06;;;;;;;;;;;;;;;;;;5003909;28;20556;-72
2023/10/21 10:35:37;;;;;;;13.02;5.20;;;;;;;;;;5019425;28;20355;-70
2023/10/21 10:38:05;;;;;;;10.82;4.50;;;;;;;;;;5005634;28;20025;-72
2023/10/21 10:40:35;;;;;;;13.63;5.88;;;;;;;;;;5000446;28;20451;-71
2023/10/21 10:43:03;;;;;;;13.10;6.03;;;;;;;;;;4999961;28;20028;-71
2023/10/21 10:45:32;;;;;;;10.68;3.70;;;;;;;;;;5021551;28;20186;-70
2023/10/21 10:48:00;;;;;;;10.07;2.67;;;;;;;;;;5001257;28;20033;-70
2023/10/21 10:50:26;;;;;;;8.98;3.15;;;;;;;;;;5016984;28;20564;-70
2023/10/21 10:52:55;;;;;;;10.15;4.05;;;;;;;;;;5018426;28;20182;-71
2023/10/21 10:55:22;;;;;;;8.05;2.47;;;;;;;;;;4998619;28;20039;-70
2023/10/21 10:57:51;;;;;;;11.45;3.45;;;;;;;;;;5017722;28;20037;-70
2023/10/21 11:00:21;;;;;;;8.60;2.83;;;;;;;;;;5013564;28;20479;-70
2023/10/21 11:02:48;;;;;;;7.80;2.38;;;;;;;;;;5021847;28;20055;-69
2023/10/21 11:05:20;;;;;;;8.02;2.25;;;;;;;;;;5000243;28;20025;-70
2023/10/21 11:07:46;;;;;;;9.25;1.80;;;;;;;;;;5018044;28;20044;-72
2023/10/21 11:10:14;;;;;;;7.50;1.50;;;;;;;;;;5002052;28;20231;-69
2023/10/21 11:12:41;;;;;;;6.05;1.35;;;;;;;;;;5019043;28;20029;-71
2023/10/21 11:15:07;;;;;;;4.82;1.23;;;;;;;;;;5019492;28;20584;-69
2023/10/21 11:17:33;;;;;;;8.73;1.42;;;;;;;;;;5015203;28;20039;-68
2023/10/21 11:20:00;;;;;;;6.80;1.63;;;;;;;;;;5016589;28;20132;-71
2023/10/21 11:22:26;;;;;;;5.32;1.35;;;;;;;;;;5011679;28;20348;-69
2023/10/21 11:24:56;;;;;;;6.95;1.50;;;;;;;;;;5019203;28;20056;-72
2023/10/21 11:27:22;;;;;;;6.82;1.48;;;;;;;;;;5015075;28;20354;-70
2023/10/21 11:29:51;;;;;;;6.18;1.17;;;;;;;;;;5018170;28;20516;-70
2023/10/21 11:32:24;;;;;;;4.63;1.10;;;;;;;;;;5015408;28;20155;-70
2023/10/21 11:34:50;;;;;;;6.93;1.50;;;;;;;;;;5001790;28;20020;-70
2023/10/21 11:37:18;;;;;;;5.03;1.20;;;;;;;;;;5018769;28;20036;-72
2023/10/21 11:39:44;;;;;;;7.20;1.50;;;;;;;;;;5024703;28;20036;-71
2023/10/21 11:42:20;;;;;;;13.77;1.63;;;;;;;;;;5020234;28;20332;-69
2023/10/21 11:44:46;;;;;;;;;;;;;;;;;;5023935;28;20316;-64
2023/10/21 11:47:12;;;;;;;6.88;1.20;;;;;;;;;;5019538;28;19920;-69
2023/10/21 11:49:38;;;;;;;6.25;1.27;;;;;;;;;;5017415;28;20102;-70
2023/10/21 11:52:04;;;;;;;7.90;1.20;;;;;;;;;;5023680;28;20033;-73
2023/10/21 11:54:39;;;;;;;6.15;1.35;;;;;;;;;;5021724;28;20033;-63
2023/10/21 12:24:19;;;;;;;6.57;1.60;;;;;;;;;;4962936;28;20151;-74
2023/10/21 12:27:34;;;;;;;8.13;1.95;;;;;;;;;;4957719;28;20320;-70
2023/10/21 12:45:46;;;;;;;5.75;1.42;;;;;;;;;;4918345;28;20909;-69
2023/10/21 12:48:19;;;;;;;4.68;1.13;;;;;;;;;;4944065;28;20220;-69
2023/10/21 12:50:49;;;;;;;6.30;1.50;;;;;;;;;;4951229;28;20053;-69
2023/10/21 12:53:15;;;;;;;6.28;1.55;;;;;;;;;;4952603;28;20437;-69
2023/10/21 12:55:42;;;;;;;6.35;1.20;;;;;;;;;;4950699;28;20478;-69
2023/10/21 12:58:08;;;;;;;6.43;1.33;;;;;;;;;;4956262;28;20189;-72
2023/10/21 13:00:34;;;;;;;8.40;1.60;;;;;;;;;;4942200;28;20042;-71
2023/10/21 13:03:00;;;;;;;7.47;1.83;;;;;;;;;;4959061;28;20062;-72
2023/10/21 13:05:27;;;;;;;8.10;2.20;;;;;;;;;;4955779;28;20374;-71
2023/10/21 13:07:53;;;;;;;7.25;2.20;;;;;;;;;;4960888;28;20220;-71
2023/10/21 13:10:19;;;;;;;6.63;2.10;;;;;;;;;;4952205;28;20453;-71
2023/10/21 13:12:46;;;;;;;5.82;1.60;;;;;;;;;;4956320;28;20290;-71
2023/10/21 13:15:12;;;;;;;8.52;2.25;;;;;;;;;;4965437;28;20643;-72
2023/10/21 13:17:39;;;;;;;7.63;2.55;;;;;;;;;;4999103;28;20436;-72
2023/10/21 13:20:12;;;;;;;6.63;2.03;;;;;;;;;;5000928;28;20103;-71
2023/10/21 13:22:38;;;;;;;7.07;1.85;;;;;;;;;;5000006;28;20029;-72
2023/10/21 13:25:07;;;;;;;6.88;1.60;;;;;;;;;;4999258;28;20419;-72
2023/10/21 13:27:34;;;;;;;5.90;1.70;;;;;;;;;;4997223;28;21968;-72
2023/10/21 13:30:00;;;;;;;5.43;1.45;;;;;;;;;;5000004;28;20523;-70
2023/10/21 13:32:27;;;;;;;4.28;1.08;;;;;;;;;;4996717;28;20025;-68
2023/10/21 13:34:54;;;;;;;7.57;1.80;;;;;;;;;;5000897;28;20032;-69
2023/10/21 13:37:21;;;;;;;6.95;2.05;;;;;;;;;;4994394;28;20522;-69
2023/10/21 13:39:47;;;;;;;8.60;2.35;;;;;;;;;;4999948;28;20045;-69
2023/10/21 13:42:13;;;;;;;6.40;1.70;;;;;;;;;;4996362;28;20076;-69
2023/10/21 13:44:40;;;;;;;8.40;1.80;;;;;;;;;;5000762;28;20371;-69
2023/10/21 13:47:08;;;;;;;7.50;1.80;;;;;;;;;;4998430;28;20514;-69
2023/10/21 13:49:43;;;;;;;5.38;1.63;;;;;;;;;;4994714;28;20046;-69
2023/10/21 13:52:09;;;;;;;6.22;1.55;;;;;;;;;;4997657;28;20649;-69
2023/10/21 13:54:35;;;;;;;7.78;1.92;;;;;;;;;;4995276;28;20257;-69
2023/10/21 13:57:04;;;;;;;5.22;1.20;;;;;;;;;;5000884;28;20033;-68
2023/10/21 13:59:30;;;;;;;6.68;1.45;;;;;;;;;;5000250;28;20115;-69
2023/10/21 14:01:57;;;;;;;4.55;1.40;;;;;;;;;;4999776;28;20372;-68
2023/10/21 14:04:25;;;;;;;8.38;1.60;;;;;;;;;;4996876;28;20209;-69
2023/10/21 14:06:52;;;;;;;5.25;1.30;;;;;;;;;;4998310;28;20028;-68
2023/10/21 14:09:24;;;;;;;7.10;1.13;;;;;;;;;;4999497;28;20871;-68
2023/10/21 14:11:51;;;;;;;7.63;2.40;;;;;;;;;;5001523;28;20060;-68
2023/10/21 14:14:18;;;;;;;7.40;2.08;;;;;;;;;;4996833;28;20498;-69
2023/10/21 14:16:44;;;;;;;6.60;1.77;;;;;;;;;;5002268;28;20242;-69
2023/10/21 14:19:10;;;;;;;6.15;1.38;;;;;;;;;;4999850;28;20041;-68
2023/10/21 14:21:36;;;;;;;7.65;2.13;;;;;;;;;;4998187;28;20040;-68
2023/10/21 14:24:02;;;;;;;6.80;1.92;;;;;;;;;;5006688;28;20110;-68
2023/10/21 14:26:29;;;;;;;8.32;2.17;;;;;;;;;;5000205;28;20220;-69
2023/10/21 14:28:55;;;;;;;7.38;2.15;;;;;;;;;;5020351;28;20029;-69
2023/10/21 14:31:30;;;;;;;5.22;1.50;;;;;;;;;;5016492;28;20052;-69
2023/10/21 14:33:56;;;;;;;;;;;;;;;;;;5019204;28;20032;-69
2023/10/21 14:36:23;;;;;;;13.15;7.45;;;;;;;;;;5018271;28;19952;-69
2023/10/21 14:38:50;;;;;;;17.98;9.80;;;;;;;;;;5019020;28;20595;-69
2023/10/21 14:41:16;;;;;;;16.25;8.63;;;;;;;;;;5015136;28;20102;-69
2023/10/21 14:43:42;;;;;;;10.48;5.38;;;;;;;;;;5002192;28;20021;-68
2023/10/21 14:46:09;;;;;;;10.55;5.38;;;;;;;;;;5018135;28;20598;-69
2023/10/21 14:48:35;;;;;;;10.32;3.30;;;;;;;;;;5014762;28;20017;-69
2023/10/21 14:51:02;;;;;;;7.80;1.90;;;;;;;;;;5015965;28;20044;-69
2023/10/21 14:53:28;;;;;;;7.38;1.92;;;;;;;;;;5014468;28;20070;-69
2023/10/21 14:55:54;;;;;;;7.03;2.42;;;;;;;;;;5021087;28;20436;-69
2023/10/21 14:58:25;;;;;;;8.25;3.13;;;;;;;;;;4995636;28;20024;-69
2023/10/21 15:00:52;;;;;;;7.32;2.90;;;;;;;;;;5016194;28;20461;-69
2023/10/21 15:03:21;;;;;;;8.32;2.92;;;;;;;;;;4996054;28;20709;-69
2023/10/21 15:05:48;;;;;;;9.52;4.28;;;;;;;;;;5017823;28;20438;-69
2023/10/21 15:08:21;;;;;;;8.77;3.60;;;;;;;;;;5015671;28;20033;-68
2023/10/21 15:10:48;;;;;;;12.02;5.95;;;;;;;;;;5019438;28;20235;-68
2023/10/21 15:13:14;;;;;;;16.30;9.02;;;;;;;;;;4998278;28;20290;-70
2023/10/21 15:15:42;;;;;;;11.15;5.30;;;;;;;;;;5017452;28;20091;-69
2023/10/21 15:18:08;;;;;;;10.90;4.80;;;;;;;;;;5017775;28;20440;-69
2023/10/21 15:20:35;;;;;;;16.20;8.43;;;;;;;;;;5013635;28;20056;-69
2023/10/21 15:23:01;;;;;;;15.30;9.18;;;;;;;;;;5016408;28;20029;-69
2023/10/21 15:25:28;;;;;;;12.07;6.40;;;;;;;;;;5014932;28;20033;-69
2023/10/21 15:27:54;;;;;;;14.85;5.60;;;;;;;;;;5016998;28;20025;-69
2023/10/21 15:30:21;;;;;;;10.43;4.45;;;;;;;;;;5015371;28;20035;-69
2023/10/21 15:32:47;;;;;;;9.48;3.80;;;;;;;;;;5004057;28;20090;-69